sensor_id;sensor_type;location;lat;lon;timestamp;pressure;altitude;pressure_sealevel;temperature;humidity
58239;BME280;44037;55.638;37.356;2023-11-19T00:00:08;99877.72;;;-7.42;68.66
58239;BME280;44037;55.638;37.356;2023-11-19T00:02:38;99872.84;;;-7.50;68.62
58239;BME280;44037;55.638;37.356;2023-11-19T00:05:08;99872.34;;;-7.59;68.88
58239;BME280;44037;55.638;37.356;2023-11-19T00:07:38;99871.56;;;-7.62;68.87
58239;BME280;44037;55.638;37.356;2023-11-19T00:10:08;99867.56;;;-7.70;69.06
58239;BME280;44037;55.638;37.356;2023-11-19T00:12:37;99863.97;;;-7.68;69.18
58239;BME280;44037;55.638;37.356;2023-11-19T00:15:06;99859.66;;;-7.69;69.33
58239;BME280;44037;55.638;37.356;2023-11-19T00:17:37;99860.75;;;-7.74;69.13
58239;BME280;44037;55.638;37.356;2023-11-19T00:20:09;99861.81;;;-7.80;69.39
58239;BME280;44037;55.638;37.356;2023-11-19T00:22:37;99862.78;;;-7.83;69.43
58239;BME280;44037;55.638;37.356;2023-11-19T00:25:06;99852.34;;;-7.81;69.42
58239;BME280;44037;55.638;37.356;2023-11-19T00:27:34;99864.63;;;-7.85;69.63
58239;BME280;44037;55.638;37.356;2023-11-19T00:30:06;99854.44;;;-7.91;69.57
58239;BME280;44037;55.638;37.356;2023-11-19T00:32:35;99844.97;;;-7.93;69.75
58239;BME280;44037;55.638;37.356;2023-11-19T00:35:05;99845.09;;;-7.97;69.83
58239;BME280;44037;55.638;37.356;2023-11-19T00:37:35;99844.50;;;-8.05;70.00
58239;BME280;44037;55.638;37.356;2023-11-19T00:40:03;99840.19;;;-8.06;70.22
58239;BME280;44037;55.638;37.356;2023-11-19T00:42:32;99843.75;;;-8.07;70.37
58239;BME280;44037;55.638;37.356;2023-11-19T00:45:00;99835.91;;;-8.07;70.42
58239;BME280;44037;55.638;37.356;2023-11-19T00:47:31;99841.06;;;-8.05;70.41
58239;BME280;44037;55.638;37.356;2023-11-19T00:49:59;99835.25;;;-8.12;70.42
58239;BME280;44037;55.638;37.356;2023-11-19T00:52:26;99832.72;;;-8.15;70.31
58239;BME280;44037;55.638;37.356;2023-11-19T00:54:56;99831.00;;;-8.15;70.11
58239;BME280;44037;55.638;37.356;2023-11-19T00:57:23;99828.41;;;-8.16;70.27
58239;BME280;44037;55.638;37.356;2023-11-19T00:59:52;99823.34;;;-8.19;70.30
58239;BME280;44037;55.638;37.356;2023-11-19T01:02:20;99837.22;;;-8.19;70.37
58239;BME280;44037;55.638;37.356;2023-11-19T01:04:48;99816.41;;;-8.20;70.30
58239;BME280;44037;55.638;37.356;2023-11-19T01:07:16;99822.59;;;-8.23;70.42
58239;BME280;44037;55.638;37.356;2023-11-19T01:09:44;99819.22;;;-8.25;70.52
58239;BME280;44037;55.638;37.356;2023-11-19T01:12:13;99822.88;;;-8.31;70.46
58239;BME280;44037;55.638;37.356;2023-11-19T01:14:41;99823.78;;;-8.32;70.73
58239;BME280;44037;55.638;37.356;2023-11-19T01:17:09;99824.75;;;-8.34;70.79
58239;BME280;44037;55.638;37.356;2023-11-19T01:19:37;99818.47;;;-8.29;70.65
58239;BME280;44037;55.638;37.356;2023-11-19T01:22:04;99812.38;;;-8.27;70.44
58239;BME280;44037;55.638;37.356;2023-11-19T01:24:32;99815.06;;;-8.31;70.42
58239;BME280;44037;55.638;37.356;2023-11-19T01:27:00;99812.66;;;-8.35;70.72
58239;BME280;44037;55.638;37.356;2023-11-19T01:29:29;99805.81;;;-8.39;70.81
58239;BME280;44037;55.638;37.356;2023-11-19T01:31:57;99805.88;;;-8.41;71.03
58239;BME280;44037;55.638;37.356;2023-11-19T01:34:24;99810.06;;;-8.37;71.00
58239;BME280;44037;55.638;37.356;2023-11-19T01:36:52;99799.66;;;-8.37;70.91
58239;BME280;44037;55.638;37.356;2023-11-19T01:39:20;99808.44;;;-8.39;71.17
58239;BME280;44037;55.638;37.356;2023-11-19T01:41:48;99806.50;;;-8.34;71.04
58239;BME280;44037;55.638;37.356;2023-11-19T01:44:16;99806.47;;;-8.33;70.66
58239;BME280;44037;55.638;37.356;2023-11-19T01:46:46;99800.47;;;-8.35;70.90
58239;BME280;44037;55.638;37.356;2023-11-19T01:49:15;99788.22;;;-8.33;70.91
58239;BME280;44037;55.638;37.356;2023-11-19T01:51:44;99793.31;;;-8.30;70.89
58239;BME280;44037;55.638;37.356;2023-11-19T01:54:13;99796.06;;;-8.33;70.75
58239;BME280;44037;55.638;37.356;2023-11-19T01:56:42;99789.13;;;-8.34;70.75
58239;BME280;44037;55.638;37.356;2023-11-19T01:59:11;99788.22;;;-8.33;70.65
58239;BME280;44037;55.638;37.356;2023-11-19T02:01:40;99788.16;;;-8.31;70.59
58239;BME280;44037;55.638;37.356;2023-11-19T02:04:11;99792.41;;;-8.29;70.50
58239;BME280;44037;55.638;37.356;2023-11-19T02:06:41;99791.56;;;-8.29;70.52
58239;BME280;44037;55.638;37.356;2023-11-19T02:09:09;99790.72;;;-8.30;70.22
58239;BME280;44037;55.638;37.356;2023-11-19T02:11:39;99790.78;;;-8.31;70.05
58239;BME280;44037;55.638;37.356;2023-11-19T02:14:07;99796.94;;;-8.34;70.24
58239;BME280;44037;55.638;37.356;2023-11-19T02:16:35;99795.41;;;-8.39;70.34
58239;BME280;44037;55.638;37.356;2023-11-19T02:19:03;99799.84;;;-8.41;70.51
58239;BME280;44037;55.638;37.356;2023-11-19T02:21:53;99794.69;;;-8.43;70.45
58239;BME280;44037;55.638;37.356;2023-11-19T02:24:22;99798.97;;;-8.42;70.50
58239;BME280;44037;55.638;37.356;2023-11-19T02:26:59;99799.09;;;-8.45;70.37
58239;BME280;44037;55.638;37.356;2023-11-19T02:29:30;99787.78;;;-8.44;70.43
58239;BME280;44037;55.638;37.356;2023-11-19T02:31:58;99782.56;;;-8.44;70.41
58239;BME280;44037;55.638;37.356;2023-11-19T02:34:26;99794.78;;;-8.46;70.38
58239;BME280;44037;55.638;37.356;2023-11-19T02:36:53;99788.81;;;-8.48;70.58
58239;BME280;44037;55.638;37.356;2023-11-19T02:39:21;99795.69;;;-8.47;70.40
58239;BME280;44037;55.638;37.356;2023-11-19T02:41:52;99793.06;;;-8.46;70.26
58239;BME280;44037;55.638;37.356;2023-11-19T02:44:19;99786.06;;;-8.45;70.32
58239;BME280;44037;55.638;37.356;2023-11-19T02:46:48;99788.81;;;-8.48;70.20
58239;BME280;44037;55.638;37.356;2023-11-19T02:49:16;99785.25;;;-8.47;70.27
58239;BME280;44037;55.638;37.356;2023-11-19T02:51:44;99783.53;;;-8.47;70.35
58239;BME280;44037;55.638;37.356;2023-11-19T02:54:12;99777.56;;;-8.50;70.09
58239;BME280;44037;55.638;37.356;2023-11-19T02:56:42;99779.50;;;-8.55;70.20
58239;BME280;44037;55.638;37.356;2023-11-19T02:59:10;99778.53;;;-8.53;70.11
58239;BME280;44037;55.638;37.356;2023-11-19T03:01:54;99788.13;;;-8.53;70.18
58239;BME280;44037;55.638;37.356;2023-11-19T03:04:22;99767.28;;;-8.53;70.20
58239;BME280;44037;55.638;37.356;2023-11-19T03:06:50;99775.88;;;-8.51;70.17
58239;BME280;44037;55.638;37.356;2023-11-19T03:09:19;99772.66;;;-8.58;70.09
58239;BME280;44037;55.638;37.356;2023-11-19T03:11:47;99773.66;;;-8.62;70.20
58239;BME280;44037;55.638;37.356;2023-11-19T03:14:15;99765.06;;;-8.64;70.00
58239;BME280;44037;55.638;37.356;2023-11-19T03:16:45;99767.84;;;-8.69;70.30
58239;BME280;44037;55.638;37.356;2023-11-19T03:19:15;99771.47;;;-8.73;70.42
58239;BME280;44037;55.638;37.356;2023-11-19T03:21:42;99768.88;;;-8.73;70.56
58239;BME280;44037;55.638;37.356;2023-11-19T03:24:12;99768.75;;;-8.70;70.30
58239;BME280;44037;55.638;37.356;2023-11-19T03:26:41;99765.59;;;-8.78;70.29
58239;BME280;44037;55.638;37.356;2023-11-19T03:29:09;99768.19;;;-8.78;70.60
58239;BME280;44037;55.638;37.356;2023-11-19T03:31:41;99755.19;;;-8.80;70.74
58239;BME280;44037;55.638;37.356;2023-11-19T03:34:10;99763.81;;;-8.78;70.73
58239;BME280;44037;55.638;37.356;2023-11-19T03:36:39;99768.22;;;-8.80;70.88
58239;BME280;44037;55.638;37.356;2023-11-19T03:39:07;99761.34;;;-8.82;70.86
58239;BME280;44037;55.638;37.356;2023-11-19T03:41:35;99769.28;;;-8.85;70.82
58239;BME280;44037;55.638;37.356;2023-11-19T03:44:02;99758.81;;;-8.84;70.96
58239;BME280;44037;55.638;37.356;2023-11-19T03:46:30;99761.28;;;-8.79;70.83
58239;BME280;44037;55.638;37.356;2023-11-19T03:48:58;99755.31;;;-8.83;70.93
58239;BME280;44037;55.638;37.356;2023-11-19T03:51:26;99756.06;;;-8.79;70.75
58239;BME280;44037;55.638;37.356;2023-11-19T03:53:55;99756.06;;;-8.79;70.58
58239;BME280;44037;55.638;37.356;2023-11-19T03:56:23;99752.56;;;-8.78;70.49
58239;BME280;44037;55.638;37.356;2023-11-19T03:58:50;99751.63;;;-8.77;70.46
58239;BME280;44037;55.638;37.356;2023-11-19T04:01:19;99736.81;;;-8.75;70.36
58239;BME280;44037;55.638;37.356;2023-11-19T04:03:47;99732.34;;;-8.71;70.34
58239;BME280;44037;55.638;37.356;2023-11-19T04:06:14;99725.91;;;-8.61;70.16
58239;BME280;44037;55.638;37.356;2023-11-19T04:08:42;99726.69;;;-8.59;69.89
58239;BME280;44037;55.638;37.356;2023-11-19T04:11:12;99722.22;;;-8.55;69.76
58239;BME280;44037;55.638;37.356;2023-11-19T04:13:40;99711.56;;;-8.49;69.74
58239;BME280;44037;55.638;37.356;2023-11-19T04:16:08;99706.13;;;-8.43;69.59
58239;BME280;44037;55.638;37.356;2023-11-19T04:18:36;99713.75;;;-8.38;69.29
58239;BME280;44037;55.638;37.356;2023-11-19T04:21:06;99711.88;;;-8.35;69.19
58239;BME280;44037;55.638;37.356;2023-11-19T04:23:34;99706.53;;;-8.32;68.95
58239;BME280;44037;55.638;37.356;2023-11-19T04:26:02;99705.63;;;-8.31;69.08
58239;BME280;44037;55.638;37.356;2023-11-19T04:28:32;99702.81;;;-8.24;68.85
58239;BME280;44037;55.638;37.356;2023-11-19T04:31:00;99707.94;;;-8.23;68.65
58239;BME280;44037;55.638;37.356;2023-11-19T04:33:29;99705.53;;;-8.27;68.43
58239;BME280;44037;55.638;37.356;2023-11-19T04:35:57;99721.09;;;-8.26;68.51
58239;BME280;44037;55.638;37.356;2023-11-19T04:38:25;99722.00;;;-8.27;68.29
58239;BME280;44037;55.638;37.356;2023-11-19T04:40:53;99720.91;;;-8.21;68.57
58239;BME280;44037;55.638;37.356;2023-11-19T04:43:23;99726.84;;;-8.18;68.30
58239;BME280;44037;55.638;37.356;2023-11-19T04:45:52;99725.16;;;-8.19;68.61
58239;BME280;44037;55.638;37.356;2023-11-19T04:48:20;99724.25;;;-8.18;68.65
58239;BME280;44037;55.638;37.356;2023-11-19T04:50:48;99724.09;;;-8.13;68.44
58239;BME280;44037;55.638;37.356;2023-11-19T04:53:17;99723.84;;;-8.07;68.22
58239;BME280;44037;55.638;37.356;2023-11-19T04:55:45;99723.03;;;-8.09;68.36
58239;BME280;44037;55.638;37.356;2023-11-19T04:58:13;99724.50;;;-8.02;68.10
58239;BME280;44037;55.638;37.356;2023-11-19T05:00:41;99727.13;;;-8.02;68.01
58239;BME280;44037;55.638;37.356;2023-11-19T05:03:10;99726.25;;;-8.02;68.11
58239;BME280;44037;55.638;37.356;2023-11-19T05:05:38;99728.94;;;-8.04;68.10
58239;BME280;44037;55.638;37.356;2023-11-19T05:08:06;99720.22;;;-8.03;68.02
58239;BME280;44037;55.638;37.356;2023-11-19T05:10:34;99724.50;;;-8.02;68.05
58239;BME280;44037;55.638;37.356;2023-11-19T05:13:03;99723.47;;;-7.98;68.08
58239;BME280;44037;55.638;37.356;2023-11-19T05:15:30;99729.44;;;-7.94;67.94
58239;BME280;44037;55.638;37.356;2023-11-19T05:17:59;99731.97;;;-7.92;68.03
58239;BME280;44037;55.638;37.356;2023-11-19T05:20:28;99736.13;;;-7.88;67.84
58239;BME280;44037;55.638;37.356;2023-11-19T05:22:56;99730.94;;;-7.88;67.86
58239;BME280;44037;55.638;37.356;2023-11-19T05:25:27;99729.88;;;-7.84;67.71
58239;BME280;44037;55.638;37.356;2023-11-19T05:27:55;99736.06;;;-7.87;67.81
58239;BME280;44037;55.638;37.356;2023-11-19T05:30:22;99731.09;;;-7.93;68.26
58239;BME280;44037;55.638;37.356;2023-11-19T05:32:50;99736.00;;;-7.85;68.03
58239;BME280;44037;55.638;37.356;2023-11-19T05:35:18;99734.03;;;-7.79;68.03
58239;BME280;44037;55.638;37.356;2023-11-19T05:37:47;99739.84;;;-7.72;67.88
58239;BME280;44037;55.638;37.356;2023-11-19T05:40:16;99737.16;;;-7.70;67.79
58239;BME280;44037;55.638;37.356;2023-11-19T05:42:45;99734.31;;;-7.64;67.71
58239;BME280;44037;55.638;37.356;2023-11-19T05:45:13;99736.84;;;-7.63;67.72
58239;BME280;44037;55.638;37.356;2023-11-19T05:47:41;99737.66;;;-7.60;67.78
58239;BME280;44037;55.638;37.356;2023-11-19T05:50:10;99737.25;;;-7.51;67.63
58239;BME280;44037;55.638;37.356;2023-11-19T05:52:38;99735.63;;;-7.54;67.31
58239;BME280;44037;55.638;37.356;2023-11-19T05:55:07;99729.50;;;-7.53;67.33
58239;BME280;44037;55.638;37.356;2023-11-19T05:57:36;99729.38;;;-7.50;67.46
58239;BME280;44037;55.638;37.356;2023-11-19T06:00:05;99734.22;;;-7.42;67.51
58239;BME280;44037;55.638;37.356;2023-11-19T06:02:34;99739.25;;;-7.37;67.33
58239;BME280;44037;55.638;37.356;2023-11-19T06:05:04;99735.34;;;-7.27;67.19
58239;BME280;44037;55.638;37.356;2023-11-19T06:07:33;99728.88;;;-7.18;67.00
58239;BME280;44037;55.638;37.356;2023-11-19T06:10:02;99734.22;;;-7.21;66.90
58239;BME280;44037;55.638;37.356;2023-11-19T06:12:33;99729.00;;;-7.21;67.08
58239;BME280;44037;55.638;37.356;2023-11-19T06:15:05;99736.19;;;-7.26;67.67
58239;BME280;44037;55.638;37.356;2023-11-19T06:17:34;99729.16;;;-7.24;67.61
58239;BME280;44037;55.638;37.356;2023-11-19T06:20:03;99727.91;;;-7.16;67.54
58239;BME280;44037;55.638;37.356;2023-11-19T06:22:31;99726.72;;;-7.08;67.51
58239;BME280;44037;55.638;37.356;2023-11-19T06:24:59;99728.16;;;-7.01;67.29
58239;BME280;44037;55.638;37.356;2023-11-19T06:27:27;99719.69;;;-7.06;67.34
58239;BME280;44037;55.638;37.356;2023-11-19T06:29:56;99719.63;;;-7.05;67.43
58239;BME280;44037;55.638;37.356;2023-11-19T06:32:24;99719.72;;;-7.08;67.59
58239;BME280;44037;55.638;37.356;2023-11-19T06:34:52;99723.63;;;-6.98;67.78
58239;BME280;44037;55.638;37.356;2023-11-19T06:37:19;99714.44;;;-6.86;67.60
58239;BME280;44037;55.638;37.356;2023-11-19T06:39:48;99723.75;;;-6.80;67.23
58239;BME280;44037;55.638;37.356;2023-11-19T06:42:16;99712.59;;;-6.84;67.17
58239;BME280;44037;55.638;37.356;2023-11-19T06:44:44;99714.22;;;-6.81;67.20
58239;BME280;44037;55.638;37.356;2023-11-19T06:47:13;99712.97;;;-6.72;67.06
58239;BME280;44037;55.638;37.356;2023-11-19T06:49:43;99716.72;;;-6.78;67.07
58239;BME280;44037;55.638;37.356;2023-11-19T06:52:11;99714.09;;;-6.78;67.33
58239;BME280;44037;55.638;37.356;2023-11-19T06:54:39;99714.09;;;-6.78;67.23
58239;BME280;44037;55.638;37.356;2023-11-19T06:57:07;99719.25;;;-6.76;67.37
58239;BME280;44037;55.638;37.356;2023-11-19T06:59:35;99727.09;;;-6.76;67.39
58239;BME280;44037;55.638;37.356;2023-11-19T07:02:03;99719.81;;;-6.70;67.34
58239;BME280;44037;55.638;37.356;2023-11-19T07:04:33;99723.47;;;-6.55;67.24
58239;BME280;44037;55.638;37.356;2023-11-19T07:07:01;99724.06;;;-6.48;66.95
58239;BME280;44037;55.638;37.356;2023-11-19T07:09:29;99725.09;;;-6.52;67.18
58239;BME280;44037;55.638;37.356;2023-11-19T07:11:56;99715.16;;;-6.44;67.06
58239;BME280;44037;55.638;37.356;2023-11-19T07:14:26;99712.03;;;-6.33;67.08
58239;BME280;44037;55.638;37.356;2023-11-19T07:16:54;99708.00;;;-6.21;66.96
58239;BME280;44037;55.638;37.356;2023-11-19T07:19:22;99709.63;;;-6.19;66.50
58239;BME280;44037;55.638;37.356;2023-11-19T07:21:52;99719.09;;;-6.16;66.86
58239;BME280;44037;55.638;37.356;2023-11-19T07:24:20;99710.63;;;-6.21;66.62
58239;BME280;44037;55.638;37.356;2023-11-19T07:26:48;99714.66;;;-6.14;66.61
58239;BME280;44037;55.638;37.356;2023-11-19T07:29:16;99718.25;;;-6.17;66.69
58239;BME280;44037;55.638;37.356;2023-11-19T07:31:44;99713.56;;;-6.10;66.71
58239;BME280;44037;55.638;37.356;2023-11-19T07:34:11;99705.66;;;-6.08;66.56
58239;BME280;44037;55.638;37.356;2023-11-19T07:36:40;99716.97;;;-6.08;66.46
58239;BME280;44037;55.638;37.356;2023-11-19T07:39:09;99717.38;;;-5.98;66.52
58239;BME280;44037;55.638;37.356;2023-11-19T07:41:37;99712.56;;;-5.88;66.33
58239;BME280;44037;55.638;37.356;2023-11-19T07:44:05;99714.25;;;-5.87;65.88
58239;BME280;44037;55.638;37.356;2023-11-19T07:46:33;99713.00;;;-5.98;66.28
58239;BME280;44037;55.638;37.356;2023-11-19T07:49:01;99715.97;;;-5.86;66.20
58239;BME280;44037;55.638;37.356;2023-11-19T07:51:29;99714.72;;;-5.79;65.89
58239;BME280;44037;55.638;37.356;2023-11-19T07:53:56;99709.09;;;-5.71;65.78
58239;BME280;44037;55.638;37.356;2023-11-19T07:56:26;99713.06;;;-5.63;65.27
58239;BME280;44037;55.638;37.356;2023-11-19T07:58:54;99712.34;;;-5.66;65.06
58239;BME280;44037;55.638;37.356;2023-11-19T08:01:21;99710.22;;;-5.58;64.88
58239;BME280;44037;55.638;37.356;2023-11-19T08:03:50;99709.75;;;-5.49;64.83
58239;BME280;44037;55.638;37.356;2023-11-19T08:06:17;99711.06;;;-5.57;64.62
58239;BME280;44037;55.638;37.356;2023-11-19T08:08:45;99704.56;;;-5.68;64.72
58239;BME280;44037;55.638;37.356;2023-11-19T08:11:14;99699.81;;;-5.59;65.03
58239;BME280;44037;55.638;37.356;2023-11-19T08:13:43;99706.19;;;-5.65;64.52
58239;BME280;44037;55.638;37.356;2023-11-19T08:16:11;99692.19;;;-5.64;64.16
58239;BME280;44037;55.638;37.356;2023-11-19T08:18:41;99702.41;;;-5.59;64.50
58239;BME280;44037;55.638;37.356;2023-11-19T08:21:09;99702.28;;;-5.56;64.28
58239;BME280;44037;55.638;37.356;2023-11-19T08:23:37;99695.25;;;-5.56;64.33
58239;BME280;44037;55.638;37.356;2023-11-19T08:26:05;99694.25;;;-5.53;63.76
58239;BME280;44037;55.638;37.356;2023-11-19T08:28:33;99694.75;;;-5.45;63.77
58239;BME280;44037;55.638;37.356;2023-11-19T08:31:04;99687.50;;;-5.40;63.33
58239;BME280;44037;55.638;37.356;2023-11-19T08:33:32;99679.03;;;-5.45;63.44
58239;BME280;44037;55.638;37.356;2023-11-19T08:36:00;99684.28;;;-5.45;63.67
58239;BME280;44037;55.638;37.356;2023-11-19T08:38:30;99687.81;;;-5.46;63.90
58239;BME280;44037;55.638;37.356;2023-11-19T08:40:58;99690.56;;;-5.32;63.57
58239;BME280;44037;55.638;37.356;2023-11-19T08:43:26;99685.34;;;-5.32;63.32
58239;BME280;44037;55.638;37.356;2023-11-19T08:45:54;99682.81;;;-5.33;63.04
58239;BME280;44037;55.638;37.356;2023-11-19T08:48:23;99693.19;;;-5.32;63.08
58239;BME280;44037;55.638;37.356;2023-11-19T08:50:52;99693.66;;;-5.41;63.19
58239;BME280;44037;55.638;37.356;2023-11-19T08:53:20;99694.50;;;-5.40;63.76
58239;BME280;44037;55.638;37.356;2023-11-19T08:55:48;99696.59;;;-5.29;63.78
58239;BME280;44037;55.638;37.356;2023-11-19T08:58:16;99687.94;;;-5.32;64.21
58239;BME280;44037;55.638;37.356;2023-11-19T09:00:44;99683.03;;;-5.20;64.28
58239;BME280;44037;55.638;37.356;2023-11-19T09:03:12;99688.16;;;-5.19;63.67
58239;BME280;44037;55.638;37.356;2023-11-19T09:05:41;99686.84;;;-5.10;62.92
58239;BME280;44037;55.638;37.356;2023-11-19T09:08:09;99680.84;;;-5.12;62.99
58239;BME280;44037;55.638;37.356;2023-11-19T09:10:37;99682.06;;;-5.02;61.98
58239;BME280;44037;55.638;37.356;2023-11-19T09:13:05;99674.38;;;-5.05;61.45
58239;BME280;44037;55.638;37.356;2023-11-19T09:15:34;99669.88;;;-5.03;61.10
58239;BME280;44037;55.638;37.356;2023-11-19T09:18:01;99669.13;;;-5.05;60.67
58239;BME280;44037;55.638;37.356;2023-11-19T09:20:30;99662.63;;;-4.98;59.71
58239;BME280;44037;55.638;37.356;2023-11-19T09:23:05;99660.25;;;-5.02;58.81
58239;BME280;44037;55.638;37.356;2023-11-19T09:25:35;99651.44;;;-5.01;58.40
58239;BME280;44037;55.638;37.356;2023-11-19T09:28:03;99648.09;;;-4.87;57.04
58239;BME280;44037;55.638;37.356;2023-11-19T09:30:31;99651.19;;;-4.79;57.42
58239;BME280;44037;55.638;37.356;2023-11-19T09:33:00;99647.41;;;-4.91;55.83
58239;BME280;44037;55.638;37.356;2023-11-19T09:35:27;99639.81;;;-4.95;55.95
58239;BME280;44037;55.638;37.356;2023-11-19T09:37:55;99629.84;;;-5.05;56.57
58239;BME280;44037;55.638;37.356;2023-11-19T09:40:24;99630.00;;;-5.08;56.57
58239;BME280;44037;55.638;37.356;2023-11-19T09:42:54;99623.31;;;-5.14;56.00
58239;BME280;44037;55.638;37.356;2023-11-19T09:45:25;99621.88;;;-5.19;56.21
58239;BME280;44037;55.638;37.356;2023-11-19T09:47:55;99621.59;;;-5.31;56.18
58239;BME280;44037;55.638;37.356;2023-11-19T09:50:24;99610.50;;;-5.36;57.00
58239;BME280;44037;55.638;37.356;2023-11-19T09:52:52;99606.63;;;-5.28;57.85
58239;BME280;44037;55.638;37.356;2023-11-19T09:55:20;99609.19;;;-5.27;57.81
58239;BME280;44037;55.638;37.356;2023-11-19T09:57:50;99605.63;;;-5.26;58.17
58239;BME280;44037;55.638;37.356;2023-11-19T10:00:21;99606.47;;;-5.25;58.04
58239;BME280;44037;55.638;37.356;2023-11-19T10:02:49;99606.63;;;-5.28;57.45
58239;BME280;44037;55.638;37.356;2023-11-19T10:05:19;99599.03;;;-5.33;57.30
58239;BME280;44037;55.638;37.356;2023-11-19T10:07:47;99596.25;;;-5.30;57.10
58239;BME280;44037;55.638;37.356;2023-11-19T10:10:15;99592.19;;;-5.36;57.29
58239;BME280;44037;55.638;37.356;2023-11-19T10:12:46;99589.72;;;-5.39;57.61
58239;BME280;44037;55.638;37.356;2023-11-19T10:15:20;99595.13;;;-5.42;57.87
58239;BME280;44037;55.638;37.356;2023-11-19T10:17:48;99590.88;;;-5.44;58.12
58239;BME280;44037;55.638;37.356;2023-11-19T10:20:16;99586.66;;;-5.47;57.95
58239;BME280;44037;55.638;37.356;2023-11-19T10:22:44;99586.97;;;-5.53;58.68
58239;BME280;44037;55.638;37.356;2023-11-19T10:25:25;99588.16;;;-5.59;58.90
58239;BME280;44037;55.638;37.356;2023-11-19T10:27:53;99587.50;;;-5.47;59.47
58239;BME280;44037;55.638;37.356;2023-11-19T10:30:24;99584.81;;;-5.45;59.78
58239;BME280;44037;55.638;37.356;2023-11-19T10:33:05;99590.06;;;-5.45;60.45
58239;BME280;44037;55.638;37.356;2023-11-19T10:35:34;99586.34;;;-5.41;60.26
58239;BME280;44037;55.638;37.356;2023-11-19T10:38:13;99593.72;;;-5.49;60.29
58239;BME280;44037;55.638;37.356;2023-11-19T10:40:42;99590.97;;;-5.46;60.20
58239;BME280;44037;55.638;37.356;2023-11-19T10:43:10;99597.91;;;-5.45;60.25
58239;BME280;44037;55.638;37.356;2023-11-19T10:45:39;99583.81;;;-5.42;59.84
58239;BME280;44037;55.638;37.356;2023-11-19T10:48:07;99599.84;;;-5.49;59.98
58239;BME280;44037;55.638;37.356;2023-11-19T10:50:35;99593.28;;;-5.57;59.72
58239;BME280;44037;55.638;37.356;2023-11-19T10:53:04;99601.16;;;-5.57;59.80
58239;BME280;44037;55.638;37.356;2023-11-19T10:55:33;99595.81;;;-5.56;59.10
58239;BME280;44037;55.638;37.356;2023-11-19T10:58:03;99593.59;;;-5.46;59.07
58239;BME280;44037;55.638;37.356;2023-11-19T11:00:37;99582.81;;;-5.40;59.16
58239;BME280;44037;55.638;37.356;2023-11-19T11:03:10;99585.75;;;-5.46;58.75
58239;BME280;44037;55.638;37.356;2023-11-19T11:05:39;99586.16;;;-5.38;58.51
58239;BME280;44037;55.638;37.356;2023-11-19T11:08:08;99578.22;;;-5.36;58.02
58239;BME280;44037;55.638;37.356;2023-11-19T11:10:41;99573.38;;;-5.26;57.38
58239;BME280;44037;55.638;37.356;2023-11-19T11:13:11;99577.59;;;-5.24;57.57
58239;BME280;44037;55.638;37.356;2023-11-19T11:15:41;99576.41;;;-5.18;57.07
58239;BME280;44037;55.638;37.356;2023-11-19T11:18:10;99568.22;;;-5.12;56.82
58239;BME280;44037;55.638;37.356;2023-11-19T11:20:38;99572.97;;;-5.03;56.55
58239;BME280;44037;55.638;37.356;2023-11-19T11:23:33;99571.03;;;-4.83;55.63
58239;BME280;44037;55.638;37.356;2023-11-19T11:26:20;99574.78;;;-4.71;55.28
58239;BME280;44037;55.638;37.356;2023-11-19T11:28:56;99573.25;;;-4.59;55.12
58239;BME280;44037;55.638;37.356;2023-11-19T11:31:34;99571.97;;;-4.68;54.78
58239;BME280;44037;55.638;37.356;2023-11-19T11:37:01;99571.22;;;-4.86;54.71
58239;BME280;44037;55.638;37.356;2023-11-19T11:39:34;99571.13;;;-4.85;54.78
58239;BME280;44037;55.638;37.356;2023-11-19T11:42:33;99563.16;;;-4.83;54.91
58239;BME280;44037;55.638;37.356;2023-11-19T11:45:02;99559.88;;;-4.71;54.38
58239;BME280;44037;55.638;37.356;2023-11-19T11:48:06;99566.56;;;-4.81;54.43
58239;BME280;44037;55.638;37.356;2023-11-19T11:50:48;99562.56;;;-4.88;54.61
58239;BME280;44037;55.638;37.356;2023-11-19T11:53:17;99564.38;;;-4.89;54.96
58239;BME280;44037;55.638;37.356;2023-11-19T11:55:55;99563.09;;;-4.98;54.92
58239;BME280;44037;55.638;37.356;2023-11-19T11:58:26;99565.19;;;-5.04;55.19
58239;BME280;44037;55.638;37.356;2023-11-19T12:00:58;99564.88;;;-4.98;54.92
58239;BME280;44037;55.638;37.356;2023-11-19T12:03:28;99563.84;;;-4.95;55.05
58239;BME280;44037;55.638;37.356;2023-11-19T12:05:58;99568.81;;;-5.07;55.30
58239;BME280;44037;55.638;37.356;2023-11-19T12:08:28;99552.09;;;-5.20;55.90
58239;BME280;44037;55.638;37.356;2023-11-19T12:10:58;99562.56;;;-5.20;55.70
58239;BME280;44037;55.638;37.356;2023-11-19T12:13:44;99556.75;;;-5.25;55.82
58239;BME280;44037;55.638;37.356;2023-11-19T12:16:13;99546.34;;;-5.27;56.11
58239;BME280;44037;55.638;37.356;2023-11-19T12:18:42;99548.50;;;-5.35;55.74
58239;BME280;44037;55.638;37.356;2023-11-19T12:21:11;99548.41;;;-5.50;56.49
58239;BME280;44037;55.638;37.356;2023-11-19T12:23:45;99542.06;;;-5.61;57.00
58239;BME280;44037;55.638;37.356;2023-11-19T12:26:39;99547.59;;;-5.68;57.22
58239;BME280;44037;55.638;37.356;2023-11-19T12:29:07;99546.06;;;-5.72;57.15
58239;BME280;44037;55.638;37.356;2023-11-19T12:31:35;99550.69;;;-5.94;58.08
58239;BME280;44037;55.638;37.356;2023-11-19T12:34:09;99555.84;;;-5.93;57.87
58239;BME280;44037;55.638;37.356;2023-11-19T12:36:42;99556.78;;;-5.94;58.08
58239;BME280;44037;55.638;37.356;2023-11-19T12:39:10;99543.63;;;-5.92;57.91
58239;BME280;44037;55.638;37.356;2023-11-19T12:41:52;99546.84;;;-6.05;57.77
58239;BME280;44037;55.638;37.356;2023-11-19T12:44:21;99531.41;;;-6.09;58.15
58239;BME280;44037;55.638;37.356;2023-11-19T12:47:02;99537.66;;;-6.12;58.19
58239;BME280;44037;55.638;37.356;2023-11-19T12:49:30;99539.41;;;-6.13;58.12
58239;BME280;44037;55.638;37.356;2023-11-19T12:52:00;99534.25;;;-6.14;58.40
58239;BME280;44037;55.638;37.356;2023-11-19T12:54:34;99534.16;;;-6.13;58.64
58239;BME280;44037;55.638;37.356;2023-11-19T12:57:03;99535.34;;;-6.18;58.44
58239;BME280;44037;55.638;37.356;2023-11-19T12:59:32;99525.25;;;-6.26;58.98
58239;BME280;44037;55.638;37.356;2023-11-19T13:02:00;99525.25;;;-6.26;59.03
58239;BME280;44037;55.638;37.356;2023-11-19T13:04:29;99524.25;;;-6.23;58.97